createdAt,value
2019-05-29T00:01:17.751Z,61.32
2019-05-29T00:03:37.964Z,61.22
2019-05-29T00:06:03.976Z,61.21
2019-05-29T00:08:29.990Z,61.07
2019-05-29T00:10:55.996Z,60.95
2019-05-29T00:13:22.004Z,60.91
2019-05-29T00:15:48.007Z,60.89
2019-05-29T00:18:14.603Z,60.86
2019-05-29T00:20:40.026Z,60.88
2019-05-29T00:23:06.423Z,60.85
2019-05-29T00:25:32.041Z,60.82
2019-05-29T00:27:58.055Z,60.82
2019-05-29T00:30:24.052Z,60.80
2019-05-29T00:32:50.065Z,60.81
2019-05-29T00:35:16.358Z,60.79
2019-05-29T00:37:42.082Z,60.78
2019-05-29T00:40:08.898Z,60.78
2019-05-29T00:42:34.092Z,60.70
2019-05-29T00:45:00.086Z,60.74
2019-05-29T00:47:26.084Z,60.72
2019-05-29T00:49:52.108Z,60.75
2019-05-29T00:52:18.378Z,60.71
2019-05-29T00:54:44.123Z,60.75
2019-05-29T00:57:10.877Z,60.77
2019-05-29T00:59:36.132Z,60.77
2019-05-29T01:02:02.123Z,60.74
2019-05-29T01:04:28.143Z,60.78
2019-05-29T01:06:54.158Z,60.63
2019-05-29T01:09:20.783Z,60.58
2019-05-29T01:11:46.199Z,60.57
2019-05-29T01:14:13.085Z,60.60
2019-05-29T01:16:38.187Z,60.62
2019-05-29T01:19:04.184Z,60.61
2019-05-29T01:21:30.207Z,60.68
2019-05-29T01:23:56.200Z,60.61
2019-05-29T01:26:22.830Z,60.62
2019-05-29T01:28:48.221Z,60.59
2019-05-29T01:31:15.183Z,60.66
2019-05-29T01:33:40.281Z,60.67
2019-05-29T01:36:06.292Z,60.65
2019-05-29T01:38:32.284Z,60.64
2019-05-29T01:40:58.310Z,60.62
2019-05-29T01:43:24.304Z,60.60
2019-05-29T01:45:50.309Z,60.58
2019-05-29T01:48:17.338Z,60.52
2019-05-29T01:50:42.317Z,60.46
2019-05-29T01:53:08.336Z,60.46
2019-05-29T01:55:34.331Z,60.43
2019-05-29T01:58:00.343Z,60.43
2019-05-29T02:00:26.347Z,60.39
2019-05-29T02:02:52.372Z,60.38
2019-05-29T02:05:18.391Z,60.32
2019-05-29T02:07:44.385Z,60.32
2019-05-29T02:10:10.400Z,60.31
2019-05-29T02:12:36.395Z,60.38
2019-05-29T02:15:02.502Z,60.42
2019-05-29T02:17:28.502Z,60.43
2019-05-29T02:19:54.528Z,60.41
2019-05-29T02:22:20.937Z,60.44
2019-05-29T02:24:46.523Z,60.46
2019-05-29T02:27:12.538Z,60.46
2019-05-29T02:29:38.575Z,60.45
2019-05-29T02:32:04.676Z,60.47
2019-05-29T02:34:30.696Z,60.48
2019-05-29T02:36:56.693Z,60.47
2019-05-29T02:39:23.461Z,60.47
2019-05-29T02:41:48.885Z,60.45
2019-05-29T02:44:15.012Z,60.40
2019-05-29T02:46:41.008Z,60.34
2019-05-29T02:49:07.029Z,60.27
2019-05-29T02:51:33.033Z,60.20
2019-05-29T02:53:59.039Z,60.20
2019-05-29T02:56:26.890Z,60.17
2019-05-29T02:58:51.054Z,60.14
2019-05-29T03:01:17.089Z,60.16
2019-05-29T03:03:43.202Z,60.13
2019-05-29T03:06:09.202Z,60.10
2019-05-29T03:08:35.225Z,60.07
2019-05-29T03:11:01.226Z,60.18
2019-05-29T03:13:27.762Z,60.23
2019-05-29T03:16:09.527Z,60.29
2019-05-29T03:18:19.267Z,60.27
2019-05-29T03:20:45.257Z,60.29
2019-05-29T03:23:11.262Z,60.33
2019-05-29T03:25:37.274Z,60.36
2019-05-29T03:28:03.279Z,60.34
2019-05-29T03:30:31.680Z,60.32
2019-05-29T03:32:55.329Z,60.34
2019-05-29T03:35:21.312Z,60.33
2019-05-29T03:37:47.335Z,60.34
2019-05-29T03:40:13.327Z,60.34
2019-05-29T03:42:39.429Z,60.30
2019-05-29T03:45:05.346Z,60.32
2019-05-29T03:47:33.039Z,60.24
2019-05-29T03:49:57.359Z,60.20
2019-05-29T03:52:23.363Z,60.43
2019-05-29T03:54:49.394Z,60.62
2019-05-29T03:57:15.407Z,60.66
2019-05-29T03:59:41.429Z,60.81
2019-05-29T04:02:07.454Z,60.83
2019-05-29T04:04:34.104Z,60.87
2019-05-29T04:06:59.494Z,60.93
2019-05-29T04:09:26.954Z,60.93
2019-05-29T04:11:51.492Z,60.95
2019-05-29T04:14:17.501Z,60.82
2019-05-29T04:16:59.314Z,60.83
2019-05-29T04:19:09.521Z,60.83
2019-05-29T04:21:36.366Z,60.88
2019-05-29T04:24:01.543Z,60.93
2019-05-29T04:26:27.942Z,60.95
2019-05-29T04:28:53.556Z,61.02
2019-05-29T04:31:19.572Z,61.01
2019-05-29T04:33:45.567Z,61.29
2019-05-29T04:36:11.693Z,61.66
2019-05-29T04:38:38.509Z,61.97
2019-05-29T04:41:03.724Z,62.96
2019-05-29T04:43:31.087Z,62.32
2019-05-29T04:45:55.741Z,63.19
2019-05-29T04:48:21.867Z,62.62
2019-05-29T04:50:47.871Z,62.82
2019-05-29T04:53:14.175Z,62.74
2019-05-29T04:55:40.185Z,62.85
2019-05-29T04:58:06.273Z,63.31
2019-05-29T05:00:33.088Z,63.11
2019-05-29T05:02:58.275Z,62.61
2019-05-29T05:05:24.296Z,62.50
2019-05-29T05:07:50.353Z,62.54
2019-05-29T05:10:16.382Z,63.19
2019-05-29T05:12:42.507Z,62.85
2019-05-29T05:15:08.540Z,62.83
2019-05-29T05:17:35.912Z,63.08
2019-05-29T05:20:00.545Z,62.79
2019-05-29T05:22:26.601Z,63.05
2019-05-29T05:24:52.601Z,63.29
2019-05-29T05:27:18.620Z,63.38
2019-05-29T05:29:44.650Z,63.44
2019-05-29T05:32:10.651Z,63.29
2019-05-29T05:34:37.119Z,63.36
2019-05-29T05:37:03.197Z,63.34
2019-05-29T05:39:29.205Z,63.35
2019-05-29T05:41:55.350Z,63.30
2019-05-29T05:44:21.361Z,63.76
2019-05-29T05:46:47.391Z,63.73
2019-05-29T05:49:13.416Z,63.68
2019-05-29T05:51:42.776Z,63.56
2019-05-29T05:54:05.481Z,63.32
2019-05-29T05:56:31.510Z,63.21
2019-05-29T05:58:57.558Z,63.61
2019-05-29T06:01:23.558Z,63.17
2019-05-29T06:03:49.613Z,62.90
2019-05-29T06:06:15.587Z,62.52
2019-05-29T06:08:42.466Z,62.84
2019-05-29T06:11:07.617Z,62.46
2019-05-29T06:13:34.149Z,62.15
2019-05-29T06:15:59.806Z,61.79
2019-05-29T06:18:25.809Z,61.89
2019-05-29T06:20:51.821Z,61.53
2019-05-29T06:23:17.845Z,61.29
2019-05-29T06:25:43.991Z,61.20
2019-05-29T06:28:09.870Z,60.94
2019-05-29T06:30:36.634Z,61.01
2019-05-29T06:33:01.898Z,61.00
2019-05-29T06:35:27.929Z,60.52
2019-05-29T06:37:53.938Z,60.45
2019-05-29T06:40:20.005Z,60.39
2019-05-29T06:42:46.025Z,60.31
2019-05-29T06:45:12.053Z,60.24
2019-05-29T06:47:38.608Z,60.09
2019-05-29T06:50:04.110Z,59.95
2019-05-29T06:52:30.105Z,60.23
2019-05-29T06:54:56.133Z,61.22
2019-05-29T06:57:25.752Z,61.45
2019-05-29T06:59:48.922Z,61.34
2019-05-29T07:02:14.176Z,61.43
2019-05-29T07:04:40.458Z,61.12
2019-05-29T07:07:06.278Z,61.10
2019-05-29T07:09:32.333Z,61.02
2019-05-29T07:11:58.355Z,61.15
2019-05-29T07:14:24.368Z,60.95
2019-05-29T07:16:56.029Z,61.50
2019-05-29T07:19:25.673Z,61.49
2019-05-29T07:21:42.786Z,63.30
2019-05-29T07:24:08.440Z,63.12
2019-05-29T07:26:34.429Z,62.61
2019-05-29T07:29:07.969Z,62.99
2019-05-29T07:31:26.448Z,62.49
2019-05-29T07:33:52.468Z,62.15
2019-05-29T07:36:18.489Z,61.81
2019-05-29T07:38:54.895Z,61.91
2019-05-29T07:41:10.553Z,61.66
2019-05-29T07:43:37.566Z,61.45
2019-05-29T07:46:02.576Z,61.11
2019-05-29T07:48:28.585Z,60.81
2019-05-29T07:51:06.678Z,60.73
2019-05-29T07:53:20.584Z,60.73
2019-05-29T07:55:46.790Z,60.72
2019-05-29T07:58:12.607Z,60.75
2019-05-29T08:01:01.066Z,60.81
2019-05-29T08:03:04.636Z,60.84
2019-05-29T08:05:30.653Z,60.83
2019-05-29T08:07:56.652Z,60.81
2019-05-29T08:10:22.688Z,60.83
2019-05-29T08:12:54.395Z,60.85
2019-05-29T08:15:14.695Z,61.14
2019-05-29T08:17:41.913Z,61.30
2019-05-29T08:20:07.896Z,61.71
2019-05-29T08:22:34.595Z,61.55
2019-05-29T08:24:58.754Z,61.44
2019-05-29T08:27:24.776Z,61.57
2019-05-29T08:29:51.183Z,61.38
2019-05-29T08:32:16.806Z,61.40
2019-05-29T08:34:43.034Z,61.36
2019-05-29T08:37:08.829Z,61.34
2019-05-29T08:39:36.835Z,61.34
2019-05-29T08:42:21.249Z,61.30
2019-05-29T08:44:26.887Z,61.36
2019-05-29T08:47:09.240Z,61.42
2019-05-29T08:49:18.986Z,61.40
2019-05-29T08:51:45.965Z,61.30
2019-05-29T08:54:23.428Z,61.35
2019-05-29T08:56:37.137Z,61.31
2019-05-29T08:59:03.172Z,61.33
2019-05-29T09:01:29.233Z,61.31
2019-05-29T09:03:55.211Z,61.33
2019-05-29T09:06:21.437Z,61.31
2019-05-29T09:08:48.506Z,61.35
2019-05-29T09:11:13.286Z,61.34
2019-05-29T09:13:39.284Z,61.35
2019-05-29T09:16:05.324Z,61.33
2019-05-29T09:18:31.320Z,61.36
2019-05-29T09:21:03.195Z,61.38
2019-05-29T09:23:23.421Z,61.33
2019-05-29T09:25:49.369Z,61.27
2019-05-29T09:28:16.594Z,61.30
2019-05-29T09:30:41.398Z,61.31
2019-05-29T09:33:07.406Z,61.35
2019-05-29T09:35:33.418Z,61.42
2019-05-29T09:37:59.433Z,61.39
2019-05-29T09:40:25.450Z,61.62
2019-05-29T09:42:51.452Z,61.57
2019-05-29T09:45:17.945Z,61.60
2019-05-29T09:47:43.478Z,61.52
2019-05-29T09:50:09.495Z,61.62
2019-05-29T09:52:35.634Z,61.66
2019-05-29T09:55:02.579Z,61.54
2019-05-29T09:57:27.560Z,61.53
2019-05-29T09:59:54.446Z,61.85
2019-05-29T10:02:19.579Z,61.81
2019-05-29T10:04:45.584Z,62.16
2019-05-29T10:07:11.615Z,62.17
2019-05-29T10:09:37.609Z,62.21
2019-05-29T10:12:06.711Z,62.00
2019-05-29T10:14:29.636Z,62.00
2019-05-29T10:16:58.229Z,62.04
2019-05-29T10:19:21.735Z,62.12
2019-05-29T10:21:47.740Z,62.01
2019-05-29T10:24:13.750Z,62.07
2019-05-29T10:26:39.744Z,61.98
2019-05-29T10:29:09.073Z,62.01
2019-05-29T10:31:31.850Z,61.99
2019-05-29T10:33:57.874Z,62.10
2019-05-29T10:36:24.128Z,62.00
2019-05-29T10:38:50.696Z,62.00
2019-05-29T10:41:16.147Z,62.01
2019-05-29T10:43:42.947Z,61.92
2019-05-29T10:46:08.158Z,62.13
2019-05-29T10:48:34.270Z,62.12
2019-05-29T10:51:00.239Z,62.04
2019-05-29T10:53:26.237Z,62.23
2019-05-29T10:55:52.680Z,62.00
2019-05-29T10:58:18.285Z,61.98
2019-05-29T11:00:45.353Z,62.18
2019-05-29T11:03:10.332Z,62.27
2019-05-29T11:05:36.346Z,62.18
2019-05-29T11:08:02.355Z,62.19
2019-05-29T11:10:28.353Z,62.31
2019-05-29T11:12:54.725Z,62.44
2019-05-29T11:15:21.921Z,62.48
2019-05-29T11:17:47.175Z,62.38
2019-05-29T11:20:12.639Z,62.45
2019-05-29T11:22:38.675Z,62.30
2019-05-29T11:25:21.406Z,62.24
2019-05-29T11:27:30.764Z,62.22
2019-05-29T11:29:57.163Z,62.21
2019-05-29T11:32:22.739Z,62.15
2019-05-29T11:34:48.965Z,62.10
2019-05-29T11:37:14.794Z,62.09
2019-05-29T11:39:40.820Z,62.05
2019-05-29T11:42:06.815Z,62.11
2019-05-29T11:44:32.880Z,62.09
2019-05-29T11:46:58.869Z,62.10
2019-05-29T11:49:24.871Z,61.92
2019-05-29T11:51:51.574Z,61.85
2019-05-29T11:54:16.887Z,61.92
2019-05-29T11:56:42.909Z,61.94
2019-05-29T11:59:08.920Z,61.89
2019-05-29T12:01:49.735Z,62.05
2019-05-29T12:04:24.095Z,62.10
2019-05-29T12:06:27.101Z,62.08
2019-05-29T12:08:53.650Z,62.07
2019-05-29T12:11:19.113Z,62.00
2019-05-29T12:13:45.214Z,62.18
2019-05-29T12:16:11.317Z,62.32
2019-05-29T12:18:37.328Z,62.04
2019-05-29T12:21:03.341Z,62.28
2019-05-29T12:23:29.351Z,62.21
2019-05-29T12:26:18.849Z,62.05
2019-05-29T12:28:21.492Z,62.22
2019-05-29T12:30:47.480Z,62.14
2019-05-29T12:33:13.494Z,62.15
2019-05-29T12:35:39.516Z,62.18
2019-05-29T12:38:05.539Z,62.19
2019-05-29T12:40:31.545Z,62.34
2019-05-29T12:42:57.608Z,62.28
2019-05-29T12:45:23.566Z,62.61
2019-05-29T12:47:49.569Z,62.17
2019-05-29T12:50:15.640Z,62.61
2019-05-29T12:52:41.630Z,62.46
2019-05-29T12:55:07.659Z,62.22
2019-05-29T12:57:33.673Z,62.53
2019-05-29T13:00:00.309Z,62.14
2019-05-29T13:02:25.789Z,62.18
2019-05-29T13:05:16.271Z,62.36
2019-05-29T13:07:17.939Z,62.16
2019-05-29T13:09:43.939Z,62.41
2019-05-29T13:12:09.966Z,62.37
2019-05-29T13:14:35.959Z,62.08
2019-05-29T13:17:03.033Z,62.11
2019-05-29T13:19:28.025Z,62.13
2019-05-29T13:21:55.049Z,62.15
2019-05-29T13:24:20.054Z,62.08
2019-05-29T13:26:46.111Z,62.05
2019-05-29T13:29:12.113Z,61.96
2019-05-29T13:31:38.408Z,61.95
2019-05-29T13:34:04.447Z,61.78
2019-05-29T13:36:30.151Z,61.86
2019-05-29T13:38:56.144Z,61.91
2019-05-29T13:41:22.175Z,61.82
2019-05-29T13:43:48.192Z,61.79
2019-05-29T13:46:14.200Z,61.86
2019-05-29T13:48:40.217Z,61.79
2019-05-29T13:51:07.402Z,61.81
2019-05-29T13:53:32.301Z,61.73
2019-05-29T13:55:59.705Z,61.72
2019-05-29T13:58:24.326Z,61.75
2019-05-29T14:00:50.360Z,61.69
2019-05-29T14:03:16.347Z,61.68
2019-05-29T14:05:42.363Z,61.62
2019-05-29T14:08:09.203Z,61.61
2019-05-29T14:10:34.375Z,61.67
2019-05-29T14:13:00.933Z,61.64
2019-05-29T14:15:26.403Z,61.65
2019-05-29T14:17:52.426Z,61.62
2019-05-29T14:20:18.441Z,61.63
2019-05-29T14:22:44.454Z,61.64
2019-05-29T14:25:11.673Z,61.64
2019-05-29T14:27:36.475Z,61.57
2019-05-29T14:30:05.741Z,61.61
2019-05-29T14:32:30.857Z,61.55
2019-05-29T14:34:56.876Z,61.57
2019-05-29T14:37:22.891Z,61.60
2019-05-29T14:39:48.903Z,61.59
2019-05-29T14:42:14.933Z,61.55
2019-05-29T14:44:41.076Z,61.58
2019-05-29T14:47:08.011Z,61.55
2019-05-29T14:49:33.083Z,61.61
2019-05-29T14:51:59.110Z,61.61
2019-05-29T14:54:40.690Z,61.58
2019-05-29T14:56:51.407Z,61.56
2019-05-29T14:59:17.503Z,61.55
2019-05-29T15:01:43.443Z,61.78
2019-05-29T15:04:09.644Z,61.80
2019-05-29T15:06:35.555Z,61.93
2019-05-29T15:09:01.596Z,61.79
2019-05-29T15:11:27.625Z,61.76
2019-05-29T15:13:53.631Z,61.69
2019-05-29T15:16:19.761Z,61.77
2019-05-29T15:18:45.795Z,62.28
2019-05-29T15:21:13.110Z,61.91
2019-05-29T15:23:37.865Z,62.25
2019-05-29T15:26:03.863Z,62.26
2019-05-29T15:28:29.939Z,62.39
2019-05-29T15:30:55.941Z,62.30
2019-05-29T15:33:21.958Z,62.39
2019-05-29T15:35:47.972Z,62.31
2019-05-29T15:38:14.886Z,62.28
2019-05-29T15:40:40.031Z,62.30
2019-05-29T15:43:06.631Z,62.34
2019-05-29T15:45:32.077Z,62.29
2019-05-29T15:47:58.082Z,62.00
2019-05-29T15:50:24.103Z,62.32
2019-05-29T15:52:56.710Z,62.28
2019-05-29T15:55:32.078Z,62.29
2019-05-29T15:57:52.039Z,62.26
2019-05-29T16:00:20.960Z,62.12
2019-05-29T16:02:49.716Z,61.91
2019-05-29T16:05:17.214Z,61.99
2019-05-29T16:07:42.482Z,61.66
2019-05-29T16:10:08.595Z,61.75
2019-05-29T16:12:34.922Z,62.11
2019-05-29T16:15:02.932Z,62.10
2019-05-29T16:17:29.271Z,62.07
2019-05-29T16:19:56.388Z,62.01
2019-05-29T16:22:23.634Z,61.97
2019-05-29T16:24:49.919Z,61.96
2019-05-29T16:27:16.143Z,61.91
2019-05-29T16:29:42.141Z,61.87
2019-05-29T16:32:08.180Z,61.86
2019-05-29T16:34:34.325Z,61.94
2019-05-29T16:37:00.542Z,61.96
2019-05-29T16:39:26.741Z,61.86
2019-05-29T16:41:52.749Z,61.97
2019-05-29T16:44:25.001Z,61.97
2019-05-29T16:46:46.454Z,61.95
2019-05-29T16:49:12.588Z,61.92
2019-05-29T16:51:42.116Z,61.93
2019-05-29T16:54:07.096Z,61.90
2019-05-29T16:56:36.506Z,61.82
2019-05-29T16:59:02.525Z,61.84
2019-05-29T17:01:28.876Z,61.83
2019-05-29T17:03:54.877Z,61.82
2019-05-29T17:06:22.434Z,61.69
2019-05-29T17:08:47.289Z,61.66
2019-05-29T17:11:14.601Z,61.76
2019-05-29T17:13:42.761Z,61.76
2019-05-29T17:16:09.520Z,61.54
2019-05-29T17:18:36.088Z,61.57
2019-05-29T17:21:02.393Z,61.65
2019-05-29T17:23:28.967Z,61.49
2019-05-29T17:26:10.319Z,61.59
2019-05-29T17:28:26.272Z,61.66
2019-05-29T17:30:49.497Z,61.47
2019-05-29T17:33:16.886Z,61.49
2019-05-29T17:35:43.647Z,61.58
2019-05-29T17:38:09.753Z,61.56
2019-05-29T17:40:36.179Z,61.61
2019-05-29T17:43:02.866Z,61.84
2019-05-29T17:45:29.803Z,61.68
2019-05-29T17:48:00.581Z,61.60
2019-05-29T17:50:26.857Z,61.74
2019-05-29T17:52:52.875Z,61.83
2019-05-29T17:55:21.686Z,61.92
2019-05-29T17:57:44.897Z,61.88
2019-05-29T18:00:10.915Z,61.69
2019-05-29T18:02:50.909Z,61.97
2019-05-29T18:05:02.968Z,61.69
2019-05-29T18:07:28.981Z,61.64
2019-05-29T18:09:55.039Z,61.68
2019-05-29T18:12:21.045Z,61.66
2019-05-29T18:14:47.156Z,61.62
2019-05-29T18:17:13.176Z,61.90
2019-05-29T18:19:39.216Z,61.80
2019-05-29T18:22:05.250Z,61.67
2019-05-29T18:24:31.249Z,61.61
2019-05-29T18:26:59.228Z,62.17
2019-05-29T18:29:24.434Z,62.09
2019-05-29T18:31:49.418Z,62.49
2019-05-29T18:34:15.454Z,62.67
2019-05-29T18:36:41.491Z,62.68
2019-05-29T18:39:07.594Z,62.60
2019-05-29T18:41:33.620Z,62.77
2019-05-29T18:43:59.673Z,62.66
2019-05-29T18:46:27.131Z,62.83
2019-05-29T18:48:51.782Z,62.99
2019-05-29T18:51:18.002Z,62.86
2019-05-29T18:53:43.995Z,62.64
2019-05-29T18:56:10.164Z,63.04
2019-05-29T18:58:36.234Z,63.03
2019-05-29T19:01:02.252Z,62.61
2019-05-29T19:03:29.524Z,62.95
2019-05-29T19:05:54.282Z,62.47
2019-05-29T19:08:21.536Z,62.82
2019-05-29T19:10:46.313Z,62.71
2019-05-29T19:13:12.326Z,62.93
2019-05-29T19:15:38.491Z,63.00
2019-05-29T19:18:04.505Z,62.99
2019-05-29T19:20:30.601Z,62.70
2019-05-29T19:22:56.737Z,62.61
2019-05-29T19:25:22.786Z,62.51
2019-05-29T19:27:48.753Z,62.53
2019-05-29T19:30:14.755Z,62.36
2019-05-29T19:32:40.788Z,62.50
2019-05-29T19:35:06.785Z,62.65
2019-05-29T19:37:34.039Z,62.42
2019-05-29T19:39:58.877Z,62.44
2019-05-29T19:42:25.902Z,62.99
2019-05-29T19:44:50.892Z,62.58
2019-05-29T19:47:16.890Z,62.81
2019-05-29T19:49:42.895Z,62.42
2019-05-29T19:52:08.928Z,62.34
2019-05-29T19:54:35.717Z,62.78
2019-05-29T19:57:00.928Z,62.68
2019-05-29T19:59:27.959Z,62.71
2019-05-29T20:01:52.957Z,62.57
2019-05-29T20:04:18.995Z,62.65
2019-05-29T20:06:45.000Z,62.55
2019-05-29T20:09:11.026Z,62.56
2019-05-29T20:11:37.868Z,62.41
2019-05-29T20:14:03.150Z,62.20
2019-05-29T20:16:30.096Z,62.19
2019-05-29T20:18:55.187Z,62.36
2019-05-29T20:21:21.246Z,62.54
2019-05-29T20:23:47.256Z,62.48
2019-05-29T20:26:13.268Z,62.39
2019-05-29T20:28:39.274Z,62.43
2019-05-29T20:31:05.321Z,62.40
2019-05-29T20:33:32.390Z,62.24
2019-05-29T20:35:57.322Z,62.19
2019-05-29T20:38:23.387Z,62.27
2019-05-29T20:40:49.342Z,62.27
2019-05-29T20:43:15.363Z,62.11
2019-05-29T20:45:41.703Z,62.25
2019-05-29T20:48:07.464Z,62.15
2019-05-29T20:50:33.427Z,62.23
2019-05-29T20:55:37.725Z,62.20
2019-05-29T20:58:03.241Z,62.01
2019-05-29T21:00:29.307Z,62.05
2019-05-29T21:02:55.462Z,62.05
2019-05-29T21:05:21.464Z,61.99
2019-05-29T21:07:47.491Z,62.02
2019-05-29T21:10:13.496Z,61.96
2019-05-29T21:12:44.351Z,62.00
2019-05-29T21:15:05.555Z,61.92
2019-05-29T21:17:31.544Z,61.92
2019-05-29T21:19:57.571Z,61.98
2019-05-29T21:22:23.571Z,61.92
2019-05-29T21:25:03.297Z,61.87
2019-05-29T21:27:15.769Z,61.90
2019-05-29T21:29:41.796Z,61.89
2019-05-29T21:32:07.790Z,61.84
2019-05-29T21:34:33.819Z,61.79
2019-05-29T21:36:59.838Z,61.87
2019-05-29T21:39:25.835Z,61.80
2019-05-29T21:41:51.864Z,61.77
2019-05-29T21:44:17.862Z,61.82
2019-05-29T21:46:45.050Z,61.74
2019-05-29T21:49:09.979Z,61.72
2019-05-29T21:51:37.285Z,61.69
2019-05-29T21:54:02.039Z,61.72
2019-05-29T21:56:28.061Z,61.73
2019-05-29T21:59:03.375Z,61.69
2019-05-29T22:01:20.049Z,61.72
2019-05-29T22:03:46.530Z,61.67
2019-05-29T22:06:12.093Z,61.71
2019-05-29T22:08:38.742Z,61.69
2019-05-29T22:11:04.091Z,61.72
2019-05-29T22:13:30.078Z,61.62
2019-05-29T22:15:56.869Z,61.64
2019-05-29T22:18:22.159Z,61.53
2019-05-29T22:20:48.182Z,61.42
2019-05-29T22:23:14.194Z,61.43
2019-05-29T22:25:40.201Z,61.43
2019-05-29T22:28:06.218Z,61.42
2019-05-29T22:30:32.222Z,61.45
2019-05-29T22:32:59.472Z,61.41
2019-05-29T22:35:24.249Z,61.42
2019-05-29T22:37:51.433Z,61.44
2019-05-29T22:40:16.276Z,61.37
2019-05-29T22:42:42.294Z,61.37
2019-05-29T22:45:08.351Z,61.35
2019-05-29T22:47:34.342Z,61.32
2019-05-29T22:50:00.376Z,61.40
2019-05-29T22:52:26.391Z,61.34
2019-05-29T22:54:53.658Z,61.29
2019-05-29T22:57:18.406Z,61.28
2019-05-29T22:59:44.412Z,61.29
2019-05-29T23:02:10.419Z,61.17
2019-05-29T23:04:36.430Z,61.22
2019-05-29T23:07:02.620Z,61.15
2019-05-29T23:09:28.483Z,61.16
2019-05-29T23:11:54.483Z,61.14
2019-05-29T23:14:20.502Z,61.13
2019-05-29T23:16:46.501Z,61.07
2019-05-29T23:19:12.517Z,61.04
2019-05-29T23:21:38.532Z,61.04
2019-05-29T23:24:04.546Z,60.95
2019-05-29T23:26:30.544Z,60.91
2019-05-29T23:28:56.863Z,60.91
2019-05-29T23:31:22.737Z,60.94
2019-05-29T23:33:48.735Z,60.93
2019-05-29T23:36:14.752Z,60.96
2019-05-29T23:38:40.747Z,60.93
2019-05-29T23:41:06.815Z,60.94
2019-05-29T23:43:32.843Z,60.96
2019-05-29T23:45:59.476Z,60.94
2019-05-29T23:48:24.855Z,60.88
2019-05-29T23:50:50.931Z,60.90
2019-05-29T23:53:16.942Z,60.90
2019-05-29T23:55:42.957Z,60.89
2019-05-29T23:58:08.939Z,60.83
